Time;durP1;ratioP1;P1;durP2;ratioP2;P2;SDS_P1;SDS_P2;PMS_P1;PMS_P2;Temp;Humidity;BMP_temperature;BMP_pressure;BME280_temperature;BME280_humidity;BME280_pressure;Samples;Min_cycle;Max_cycle;Signal;HPM_P1;HPM_P2
2021/04/11 00:02:21;;;;;;;48.57;24.33;;;;;;;5.22;100.00;100769.63;4973169;28;20043;-84
2021/04/11 00:04:47;;;;;;;51.10;25.80;;;;;;;5.29;100.00;100774.88;4973616;28;20070;-82
2021/04/11 00:07:14;;;;;;;52.17;25.03;;;;;;;5.12;100.00;100765.22;4965822;28;20039;-81
2021/04/11 00:09:41;;;;;;;52.10;23.83;;;;;;;5.25;100.00;100757.41;4978367;28;20047;-79
2021/04/11 00:12:08;;;;;;;51.70;24.70;;;;;;;5.22;100.00;100753.94;4938480;29;20051;-81
2021/04/11 00:14:34;;;;;;;51.77;26.30;;;;;;;5.20;100.00;100753.91;4987596;28;20412;-78
2021/04/11 00:17:01;;;;;;;48.53;24.17;;;;;;;5.19;100.00;100749.53;4988128;28;20039;-78
2021/04/11 00:19:27;;;;;;;44.30;22.07;;;;;;;5.22;100.00;100746.06;4972951;28;20079;-80
2021/04/11 00:21:53;;;;;;;48.37;24.23;;;;;;;5.23;100.00;100745.19;4989579;28;20042;-84
2021/04/11 00:24:20;;;;;;;46.47;23.63;;;;;;;5.15;100.00;100745.16;4973183;28;20500;-82
2021/04/11 00:26:46;;;;;;;47.87;22.47;;;;;;;5.18;100.00;100741.69;4988886;28;20041;-85
2021/04/11 00:29:12;;;;;;;53.30;24.40;;;;;;;5.31;100.00;100738.22;4956107;28;20043;-81
2021/04/11 00:31:39;;;;;;;40.60;21.90;;;;;;;5.20;100.00;100737.31;4957348;28;20042;-81
2021/04/11 00:34:05;;;;;;;45.23;23.30;;;;;;;5.22;100.00;100751.31;4973011;28;20118;-79
2021/04/11 00:36:31;;;;;;;41.53;23.20;;;;;;;5.19;100.00;100740.81;4973561;28;20035;-80
2021/04/11 00:38:57;;;;;;;40.60;21.37;;;;;;;5.33;100.00;100733.84;4984566;28;20117;-85
2021/04/11 00:41:30;;;;;;;40.93;23.40;;;;;;;5.34;100.00;100733.84;4990169;28;20038;-84
2021/04/11 00:43:56;;;;;;;46.17;21.93;;;;;;;5.36;100.00;100716.38;4958673;28;20681;-80
2021/04/11 00:46:46;;;;;;;45.27;22.30;;;;;;;5.19;100.00;100717.22;4959182;28;20043;-82
2021/04/11 00:49:40;;;;;;;37.43;20.80;;;;;;;5.28;100.00;100697.16;4959136;28;20070;-81
2021/04/11 00:52:08;;;;;;;40.33;21.87;;;;;;;5.25;100.00;100704.16;4955879;28;20047;-81
2021/04/11 00:54:35;;;;;;;42.23;22.07;;;;;;;5.26;100.00;100691.06;4974497;28;20038;-81
2021/04/11 00:57:03;;;;;;;45.00;22.33;;;;;;;5.28;100.00;100678.81;4958829;28;20047;-81
2021/04/11 00:59:30;;;;;;;41.63;21.80;;;;;;;5.16;100.00;100683.19;4990029;28;20274;-80
2021/04/11 01:01:56;;;;;;;42.40;23.17;;;;;;;5.23;100.00;100687.56;4990464;28;20530;-84
2021/04/11 01:04:22;;;;;;;41.70;22.90;;;;;;;5.25;100.00;100675.34;4958141;28;20062;-83
2021/04/11 01:07:03;;;;;;;43.20;21.33;;;;;;;5.17;100.00;100669.22;4950167;28;20038;-80
2021/04/11 01:09:43;;;;;;;44.10;23.63;;;;;;;5.27;100.00;100668.34;4974156;28;20447;-83
2021/04/11 01:12:12;;;;;;;37.80;21.30;;;;;;;5.24;100.00;100650.91;4974475;28;20050;-82
2021/04/11 01:14:39;;;;;;;38.33;20.83;;;;;;;5.21;100.00;100648.28;4974838;28;20070;-84
2021/04/11 01:17:11;;;;;;;39.97;22.53;;;;;;;5.19;100.00;100647.38;4974251;28;20034;-86
2021/04/11 01:19:38;;;;;;;43.53;23.13;;;;;;;5.32;100.00;100645.66;4989336;28;20047;-81
2021/04/11 01:22:39;;;;;;;40.07;21.63;;;;;;;5.15;100.00;100639.53;4973919;28;20055;-83
2021/04/11 01:25:14;;;;;;;37.37;19.93;;;;;;;5.24;100.00;100635.19;4975312;28;20030;-87
2021/04/11 01:27:41;;;;;;;42.87;24.00;;;;;;;5.29;100.00;100632.53;5005367;23;20124;-81
2021/04/11 01:30:31;;;;;;;40.70;22.83;;;;;;;5.34;100.00;100630.81;5023111;28;20038;-81
2021/04/11 01:33:03;;;;;;;44.00;21.40;;;;;;;5.27;100.00;100629.94;4987824;28;20661;-80
2021/04/11 01:35:30;;;;;;;44.07;24.23;;;;;;;5.15;100.00;100624.69;4992117;28;20041;-81
2021/04/11 01:37:57;;;;;;;39.47;20.93;;;;;;;5.14;100.00;100627.31;4991956;28;20617;-81
2021/04/11 01:40:32;;;;;;;43.17;22.87;;;;;;;5.24;100.00;100610.75;4993719;28;20045;-80
2021/04/11 01:43:00;;;;;;;44.97;24.08;;;;;;;5.23;100.00;100619.47;5002122;28;20077;-80
2021/04/11 01:45:29;;;;;;;43.43;24.70;;;;;;;5.34;100.00;100609.84;4989479;28;20049;-80
2021/04/11 01:47:56;;;;;;;48.87;24.70;;;;;;;5.31;100.00;100605.50;4992422;28;20096;-80
2021/04/11 01:50:22;;;;;;;42.47;23.63;;;;;;;5.35;100.00;100603.75;4991895;28;20049;-80
2021/04/11 01:52:48;;;;;;;44.10;23.93;;;;;;;5.36;100.00;100605.47;4992086;28;20045;-80
2021/04/11 01:55:15;;;;;;;47.73;25.27;;;;;;;5.31;100.00;100602.00;4991584;28;20045;-80
2021/04/11 01:57:41;;;;;;;43.70;25.90;;;;;;;5.30;100.00;100595.03;5018208;28;20037;-80
2021/04/11 02:00:14;;;;;;;46.37;25.07;;;;;;;5.27;100.00;100593.25;4991711;28;20515;-81
2021/04/11 02:02:40;;;;;;;49.63;27.27;;;;;;;5.31;100.00;100586.28;5009100;28;20383;-81
2021/04/11 02:05:15;;;;;;;46.67;25.87;;;;;;;5.35;100.00;100588.03;4993067;28;20499;-81
2021/04/11 02:07:42;;;;;;;44.03;24.60;;;;;;;5.40;100.00;100574.94;5002443;28;20041;-80
2021/04/11 02:10:08;;;;;;;45.77;27.07;;;;;;;5.27;100.00;100588.03;5011953;28;20042;-80
2021/04/11 02:12:35;;;;;;;48.37;26.10;;;;;;;5.31;100.00;100583.69;5002121;28;20101;-80
2021/04/11 02:15:15;;;;;;;45.07;26.70;;;;;;;5.30;100.00;100576.69;5006834;28;20384;-81
2021/04/11 02:17:41;;;;;;;48.47;25.93;;;;;;;5.35;100.00;100564.44;4992150;28;20041;-81
2021/04/11 02:20:10;;;;;;;43.70;25.60;;;;;;;5.36;100.00;100579.28;5006992;28;20046;-80
2021/04/11 02:22:37;;;;;;;52.40;27.70;;;;;;;5.35;100.00;100565.31;5018516;28;20498;-80
2021/04/11 02:25:06;;;;;;;54.20;30.30;;;;;;;5.41;100.00;100553.09;4992231;28;20131;-80
2021/04/11 02:27:32;;;;;;;51.03;28.57;;;;;;;5.44;100.00;100553.97;4990747;28;20045;-80
2021/04/11 02:30:04;;;;;;;50.20;28.70;;;;;;;5.40;100.00;100549.63;4974786;28;20053;-80
2021/04/11 02:32:30;;;;;;;50.20;28.17;;;;;;;5.40;100.00;100541.75;4990859;28;20462;-80
2021/04/11 02:35:00;;;;;;;51.83;28.90;;;;;;;5.31;100.00;100540.00;4991520;28;20041;-81
2021/04/11 02:37:30;;;;;;;50.67;29.00;;;;;;;5.32;100.00;100530.41;4991506;28;20092;-80
2021/04/11 02:39:57;;;;;;;51.27;28.40;;;;;;;5.33;100.00;100534.78;5022562;28;20038;-80
2021/04/11 02:42:30;;;;;;;54.53;30.37;;;;;;;5.43;100.00;100525.16;4992180;28;20048;-80
2021/04/11 02:45:01;;;;;;;52.17;29.40;;;;;;;5.48;100.00;100524.28;5007296;28;20041;-80
2021/04/11 02:47:27;;;;;;;50.13;28.63;;;;;;;5.32;100.00;100528.66;4991113;28;20595;-80
2021/04/11 02:49:53;;;;;;;52.40;28.93;;;;;;;5.49;100.00;100520.78;4990293;28;20042;-80
2021/04/11 02:52:24;;;;;;;53.67;30.90;;;;;;;5.53;100.00;100517.25;5007407;28;21736;-81
2021/04/11 02:54:51;;;;;;;52.27;30.30;;;;;;;5.51;100.00;100519.00;4991263;28;20104;-80
2021/04/11 02:57:18;;;;;;;58.40;32.33;;;;;;;5.49;100.00;100512.03;4992834;28;20236;-80
2021/04/11 02:59:46;;;;;;;57.87;31.73;;;;;;;5.32;100.00;100506.84;4982437;28;20050;-80
2021/04/11 03:02:13;;;;;;;57.27;33.80;;;;;;;5.43;100.00;100505.06;4989729;28;20088;-80
2021/04/11 03:04:40;;;;;;;55.40;31.93;;;;;;;5.39;100.00;100505.94;5009126;28;20046;-80
2021/04/11 03:07:43;;;;;;;59.03;34.03;;;;;;;5.49;100.00;100507.66;4994249;28;20453;-81
2021/04/11 03:10:14;;;;;;;61.33;35.30;;;;;;;5.53;100.00;100505.91;4994533;28;20042;-80
2021/04/11 03:12:41;;;;;;;63.53;33.70;;;;;;;5.53;100.00;100492.81;4985859;28;20116;-80
2021/04/11 03:15:08;;;;;;;59.70;33.33;;;;;;;5.48;100.00;100486.72;4983963;28;20050;-81
2021/04/11 03:17:34;;;;;;;59.53;34.50;;;;;;;5.47;100.00;100492.84;5022393;28;20048;-81
2021/04/11 03:20:14;;;;;;;64.83;35.20;;;;;;;5.49;100.00;100483.22;5013588;28;20048;-80
2021/04/11 03:22:40;;;;;;;58.90;33.90;;;;;;;5.47;100.00;100475.38;4994012;28;20046;-81
2021/04/11 03:25:09;;;;;;;60.87;36.63;;;;;;;5.55;100.00;100478.84;4992094;28;20042;-81
2021/04/11 03:27:44;;;;;;;61.17;36.23;;;;;;;5.48;100.00;100477.13;4990826;28;20249;-80
2021/04/11 03:30:22;;;;;;;66.40;38.43;;;;;;;5.52;100.00;100475.34;5003682;28;20065;-81
2021/04/11 03:32:51;;;;;;;65.40;38.13;;;;;;;5.64;100.00;100475.31;5008592;28;20084;-80
2021/04/11 03:35:21;;;;;;;62.80;36.57;;;;;;;5.53;100.00;100477.09;4990163;28;20099;-80
2021/04/11 03:37:48;;;;;;;70.17;40.03;;;;;;;5.53;100.00;100464.84;5009264;28;20029;-80
2021/04/11 03:40:19;;;;;;;66.63;39.40;;;;;;;5.60;100.00;100466.56;5026966;28;20050;-80
2021/04/11 03:42:47;;;;;;;69.63;39.97;;;;;;;5.49;100.00;100452.66;5008998;28;20437;-80
2021/04/11 03:45:15;;;;;;;69.23;38.60;;;;;;;5.57;100.00;100452.63;4985643;28;20062;-80
2021/04/11 03:47:45;;;;;;;69.80;39.13;;;;;;;5.65;100.00;100456.09;5028514;28;20305;-80
2021/04/11 03:50:17;;;;;;;70.53;39.53;;;;;;;5.58;100.00;100460.47;4989669;28;20049;-80
2021/04/11 03:52:46;;;;;;;72.43;41.63;;;;;;;5.63;100.00;100452.59;5022785;28;20410;-80
2021/04/11 03:55:21;;;;;;;72.60;40.93;;;;;;;5.56;100.00;100459.63;4989609;28;20042;-80
2021/04/11 03:57:51;;;;;;;;;;;;;;;5.53;100.00;100448.25;4987514;28;20041;-80
2021/04/11 04:00:24;;;;;;;74.87;40.43;;;;;;;5.60;100.00;100448.22;5021537;28;19957;-81
2021/04/11 04:02:51;;;;;;;71.72;41.60;;;;;;;5.69;100.00;100443.84;5038827;28;20053;-81
2021/04/11 04:05:21;;;;;;;71.87;40.70;;;;;;;5.56;100.00;100437.78;4995197;28;20053;-81
2021/04/11 04:07:55;;;;;;;75.73;42.00;;;;;;;5.68;100.00;100432.47;4988897;28;20149;-82
2021/04/11 04:10:27;;;;;;;76.88;42.22;;;;;;;5.69;100.00;100430.72;5002752;28;20515;-81
2021/04/11 04:13:11;;;;;;;75.37;42.80;;;;;;;5.72;100.00;100426.38;5016211;28;20470;-81
2021/04/11 04:16:03;;;;;;;77.70;43.30;;;;;;;5.67;100.00;100424.63;5021495;28;20042;-81
2021/04/11 04:18:54;;;;;;;71.97;40.97;;;;;;;5.59;100.00;100420.28;5027997;28;20045;-81
2021/04/11 04:21:38;;;;;;;77.83;43.30;;;;;;;5.73;100.00;100419.38;4992799;28;20057;-81
2021/04/11 04:24:28;;;;;;;70.57;41.47;;;;;;;5.70;100.00;100419.38;4991119;28;20158;-81
2021/04/11 04:27:36;;;;;;;69.10;39.43;;;;;;;5.75;100.00;100426.34;4990460;28;20441;-82
2021/04/11 04:30:23;;;;;;;75.73;43.20;;;;;;;5.80;100.00;100426.31;4997530;28;20115;-80
2021/04/11 04:33:43;;;;;;;67.93;40.87;;;;;;;5.74;100.00;100418.50;5025013;28;20033;-80
2021/04/11 04:36:14;;;;;;;75.27;42.57;;;;;;;5.71;100.00;100421.09;4954744;28;20094;-80
2021/04/11 04:38:58;;;;;;;129.77;76.30;;;;;;;5.76;100.00;100421.97;5015637;28;20053;-79
2021/04/11 04:41:38;;;;;;;79.13;46.33;;;;;;;5.71;100.00;100421.97;5010388;28;20050;-80
2021/04/11 04:44:20;;;;;;;88.97;50.47;;;;;;;5.74;100.00;100418.50;5003020;28;20281;-79
2021/04/11 04:47:07;;;;;;;79.10;45.37;;;;;;;5.73;100.00;100414.13;5014425;28;20068;-79
2021/04/11 04:49:53;;;;;;;76.50;44.97;;;;;;;5.73;100.00;100425.47;5011984;28;20049;-80
2021/04/11 04:52:25;;;;;;;79.90;44.57;;;;;;;5.79;100.00;100427.19;4994946;28;20053;-79
2021/04/11 04:54:59;;;;;;;69.10;42.27;;;;;;;5.84;100.00;100425.41;5015540;28;20037;-80
2021/04/11 04:57:50;;;;;;;79.67;45.00;;;;;;;5.84;100.00;100431.53;5023469;28;20475;-79
2021/04/11 05:00:27;;;;;;;82.47;44.53;;;;;;;5.95;100.00;100426.25;5000491;28;20068;-79
2021/04/11 05:03:01;;;;;;;74.70;44.03;;;;;;;5.86;100.00;100431.53;5032330;28;20037;-79
2021/04/11 05:05:28;;;;;;;;;;;;;;;5.93;100.00;100433.28;5021173;28;20046;-80
2021/04/11 05:08:10;;;;;;;74.70;44.90;;;;;;;5.92;100.00;100426.28;5032461;28;19932;-78
2021/04/11 05:10:53;;;;;;;80.37;45.90;;;;;;;5.93;100.00;100420.16;4992278;28;20045;-79
2021/04/11 05:13:22;;;;;;;83.00;46.43;;;;;;;5.87;100.00;100417.53;5028716;28;20087;-79
2021/04/11 05:16:11;;;;;;;73.70;44.37;;;;;;;5.89;100.00;100411.41;5009894;28;20053;-80
2021/04/11 05:18:51;;;;;;;81.10;44.93;;;;;;;6.00;100.00;100423.63;4998889;28;20050;-80
2021/04/11 05:21:20;;;;;;;79.67;44.67;;;;;;;6.00;100.00;100407.91;5030099;28;20037;-80
2021/04/11 05:23:50;;;;;;;80.37;43.77;;;;;;;5.95;100.00;100405.28;4978322;28;20037;-79
2021/04/11 05:26:24;;;;;;;75.37;45.47;;;;;;;5.95;100.00;100394.78;4988593;28;20038;-79
2021/04/11 05:28:59;;;;;;;77.90;46.75;;;;;;;6.01;100.00;100386.91;5007619;28;20495;-79
2021/04/11 05:31:29;;;;;;;76.37;46.70;;;;;;;5.97;100.00;100387.81;4976237;28;20042;-80
2021/04/11 05:33:56;;;;;;;79.00;44.30;;;;;;;6.01;100.00;100372.91;5008678;28;20041;-79
2021/04/11 05:36:36;;;;;;;76.73;45.67;;;;;;;5.90;100.00;100378.22;4994959;28;20037;-78
2021/04/11 05:39:21;;;;;;;78.20;45.87;;;;;;;5.92;100.00;100373.84;4985159;28;20046;-79
2021/04/11 05:41:56;;;;;;;80.97;46.55;;;;;;;5.91;100.00;100387.84;5017158;28;20096;-79
2021/04/11 05:44:27;;;;;;;80.87;47.07;;;;;;;6.05;100.00;100388.59;5027695;28;20515;-80
2021/04/11 05:47:22;;;;;;;72.13;44.17;;;;;;;6.13;100.00;100384.19;5016564;28;20064;-79
2021/04/11 05:49:52;;;;;;;79.17;45.70;;;;;;;6.16;100.00;100371.06;4996665;28;20511;-79
2021/04/11 05:52:41;;;;;;;80.37;45.20;;;;;;;6.25;100.00;100374.50;4973690;28;20042;-80
2021/04/11 05:55:10;;;;;;;77.43;44.07;;;;;;;6.16;100.00;100364.97;4966184;28;20111;-79
2021/04/11 05:57:47;;;;;;;85.37;48.40;;;;;;;6.17;100.00;100380.69;5002018;28;20555;-79
2021/04/11 06:00:36;;;;;;;76.33;46.87;;;;;;;6.21;100.00;100373.63;4973261;28;20061;-79
2021/04/11 06:03:05;;;;;;;84.77;48.00;;;;;;;6.29;100.00;100370.97;5030675;28;20335;-79
2021/04/11 06:05:40;;;;;;;80.33;46.23;;;;;;;6.30;100.00;100362.22;4998641;28;20045;-80
2021/04/11 06:08:21;;;;;;;87.03;47.43;;;;;;;6.40;100.00;100375.25;4992685;28;20057;-81
2021/04/11 06:11:25;;;;;;;78.93;45.70;;;;;;;6.37;100.00;100380.50;5004839;28;20037;-79
2021/04/11 06:14:01;;;;;;;76.03;46.30;;;;;;;6.43;100.00;100371.72;5005957;28;20053;-80
2021/04/11 06:16:29;;;;;;;76.67;43.00;;;;;;;6.49;100.00;100369.06;4989531;28;20053;-78
2021/04/11 06:18:57;;;;;;;80.07;46.33;;;;;;;6.68;100.00;100369.75;4993970;28;20047;-79
2021/04/11 06:21:39;;;;;;;75.53;43.77;;;;;;;6.64;100.00;100375.91;4977435;28;20088;-78
2021/04/11 06:24:26;;;;;;;70.00;43.10;;;;;;;6.66;100.00;100367.16;4996175;28;20503;-77
2021/04/11 06:27:02;;;;;;;82.97;48.50;;;;;;;6.75;100.00;100361.81;4996635;28;20041;-80
2021/04/11 06:29:33;;;;;;;74.23;43.70;;;;;;;6.87;100.00;100359.94;4985503;28;20092;-80
2021/04/11 06:32:05;;;;;;;66.67;41.60;;;;;;;6.88;100.00;100354.69;4999265;28;20510;-80
2021/04/11 06:34:36;;;;;;;71.97;42.77;;;;;;;6.90;100.00;100354.69;4982200;28;20811;-78
2021/04/11 06:37:05;;;;;;;87.17;63.10;;;;;;;7.07;100.00;100355.38;5006749;28;20066;-79
2021/04/11 06:39:42;;;;;;;70.33;42.03;;;;;;;7.08;100.00;100372.88;4991269;28;20137;-82
2021/04/11 06:42:37;;;;;;;70.07;41.40;;;;;;;7.10;100.00;100354.47;4997524;28;20049;-82
2021/04/11 06:45:10;;;;;;;70.95;42.78;;;;;;;7.17;100.00;100350.88;5010718;28;20068;-80
2021/04/11 06:47:44;;;;;;;73.80;41.23;;;;;;;7.22;100.00;100351.69;5005301;28;20037;-80
2021/04/11 06:50:39;;;;;;;71.37;41.30;;;;;;;7.23;100.00;100351.69;4989521;28;20034;-80
2021/04/11 06:53:33;;;;;;;68.87;43.47;;;;;;;7.24;100.00;100332.41;4990154;28;20136;-80
2021/04/11 06:55:59;;;;;;;67.95;39.40;;;;;;;7.24;100.00;100323.66;5013026;28;20387;-80
2021/04/11 06:58:30;;;;;;;66.83;39.20;;;;;;;7.24;100.00;100332.41;4988848;28;20054;-79
2021/04/11 07:01:18;;;;;;;65.77;41.77;;;;;;;7.24;100.00;100306.13;4968242;28;20054;-80
2021/04/11 07:04:06;;;;;;;64.37;40.13;;;;;;;7.22;100.00;100299.13;5001848;28;20137;-80
2021/04/11 07:06:48;;;;;;;67.03;40.73;;;;;;;7.27;100.00;100307.84;5022262;28;20387;-79
2021/04/11 07:09:42;;;;;;;69.57;39.60;;;;;;;7.22;100.00;100280.75;4974199;28;20112;-81
2021/04/11 07:12:28;;;;;;;;;;;;;;;7.24;100.00;100285.09;5007901;28;20054;-79
2021/04/11 07:15:03;;;;;;;64.03;40.05;;;;;;;7.25;100.00;100299.97;5007784;28;19971;-78
2021/04/11 07:17:58;;;;;;;67.00;42.60;;;;;;;7.34;100.00;100304.25;4994865;28;20100;-81
2021/04/11 07:21:01;;;;;;;62.65;37.40;;;;;;;7.41;100.00;100312.94;5019031;28;20503;-78
2021/04/11 07:24:01;;;;;;;60.10;37.03;;;;;;;7.13;100.00;100302.75;4995139;28;20062;-83
2021/04/11 07:26:45;;;;;;;65.07;40.87;;;;;;;7.35;100.00;100303.34;5011422;28;20053;-81
2021/04/11 07:29:38;;;;;;;64.35;40.00;;;;;;;7.39;100.00;100297.16;5003541;28;20050;-77
2021/04/11 07:32:26;;;;;;;60.00;37.42;;;;;;;7.38;100.00;100299.81;4998417;28;20089;-80
2021/04/11 07:35:00;;;;;;;68.83;41.87;;;;;;;7.60;100.00;100296.88;5005199;28;20068;-77
2021/04/11 07:37:45;;;;;;;63.50;40.30;;;;;;;8.05;100.00;100291.81;4991565;28;20311;-80
2021/04/11 07:40:32;;;;;;;63.70;39.73;;;;;;;8.45;100.00;100302.56;4990039;28;20064;-79
2021/04/11 07:43:09;;;;;;;57.53;37.87;;;;;;;8.38;100.00;100300.06;5005598;28;20042;-81
2021/04/11 07:45:50;;;;;;;61.87;39.03;;;;;;;8.81;100.00;100300.16;4986930;28;20136;-77
2021/04/11 07:48:37;;;;;;;52.05;34.83;;;;;;;8.81;100.00;100299.28;4986681;28;20057;-76
2021/04/11 07:51:19;;;;;;;54.80;35.27;;;;;;;8.92;100.00;100307.88;4991982;28;20042;-80
2021/04/11 07:53:46;;;;;;;52.38;35.50;;;;;;;8.80;100.00;100300.19;5014765;28;20045;-77
2021/04/11 07:56:15;;;;;;;58.00;35.70;;;;;;;8.71;100.00;100301.22;4994681;28;20050;-81
2021/04/11 07:59:00;;;;;;;53.05;34.28;;;;;;;8.91;100.00;100293.84;5011865;28;20049;-78
2021/04/11 08:01:34;;;;;;;52.85;34.17;;;;;;;8.99;100.00;100294.53;5009248;28;20069;-78
2021/04/11 08:04:17;;;;;;;51.25;33.65;;;;;;;9.04;100.00;100291.81;4979307;28;20045;-79
2021/04/11 08:06:59;;;;;;;51.53;34.17;;;;;;;9.18;100.00;100289.78;5008053;28;20033;-78
2021/04/11 08:09:37;;;;;;;53.17;34.15;;;;;;;9.25;100.00;100288.75;5001327;28;20439;-80
2021/04/11 08:12:42;;;;;;;54.00;34.42;;;;;;;9.41;100.00;100301.56;5014294;28;20636;-79
2021/04/11 08:15:29;;;;;;;52.78;33.97;;;;;;;9.58;100.00;100297.69;5002656;28;20041;-79
2021/04/11 08:18:00;;;;;;;50.08;32.40;;;;;;;9.77;100.00;100292.88;5010451;28;20041;-78
2021/04/11 08:20:47;;;;;;;49.72;33.78;;;;;;;10.04;100.00;100283.44;4997151;28;20046;-79
2021/04/11 08:23:50;;;;;;;52.67;34.28;;;;;;;10.18;95.96;100275.19;4997318;28;20466;-79
2021/04/11 08:26:27;;;;;;;48.45;32.45;;;;;;;10.36;98.16;100279.16;5017516;28;20045;-78
2021/04/11 08:29:18;;;;;;;49.42;31.67;;;;;;;10.27;98.64;100285.53;5011110;28;20524;-79
2021/04/11 08:32:01;;;;;;;46.28;32.45;;;;;;;10.35;93.87;100295.91;5015393;28;20061;-79
2021/04/11 08:35:02;;;;;;;45.53;30.52;;;;;;;10.61;94.99;100297.88;5013740;28;20252;-78
2021/04/11 08:37:40;;;;;;;45.40;32.25;;;;;;;10.88;97.25;100294.47;5017676;28;20042;-79
2021/04/11 08:40:14;;;;;;;45.30;29.95;;;;;;;11.09;91.18;100295.66;4996669;28;20049;-80
2021/04/11 08:42:45;;;;;;;41.08;31.00;;;;;;;11.32;90.30;100288.84;5012800;28;20045;-81
2021/04/11 08:45:46;;;;;;;41.10;29.73;;;;;;;11.37;90.10;100284.28;5022361;28;20064;-80
2021/04/11 08:48:29;;;;;;;36.67;26.73;;;;;;;11.43;89.44;100287.59;5015573;28;20084;-81
2021/04/11 08:50:57;;;;;;;38.07;27.90;;;;;;;11.53;87.17;100282.91;4984401;28;20072;-80
2021/04/11 08:53:41;;;;;;;39.92;29.13;;;;;;;11.47;85.29;100283.09;4999883;28;20303;-81
2021/04/11 08:56:19;;;;;;;41.22;28.27;;;;;;;11.49;84.28;100283.91;5037330;28;20084;-81
2021/04/11 08:58:57;;;;;;;37.58;27.98;;;;;;;11.18;85.12;100276.00;4995933;28;20596;-79
2021/04/11 09:01:36;;;;;;;41.67;29.98;;;;;;;11.41;90.07;100277.97;5029125;28;20049;-79
2021/04/11 09:04:08;;;;;;;37.83;26.67;;;;;;;11.55;92.01;100274.00;5003170;28;20054;-81
2021/04/11 09:06:51;;;;;;;39.15;27.88;;;;;;;11.76;89.37;100269.81;5008840;28;20052;-79
2021/04/11 09:09:51;;;;;;;35.28;27.08;;;;;;;11.89;88.87;100270.34;5019617;28;20053;-80
2021/04/11 09:12:26;;;;;;;39.05;28.08;;;;;;;12.08;89.79;100257.38;5024176;28;20100;-80
2021/04/11 09:15:20;;;;;;;37.42;26.67;;;;;;;12.21;84.93;100260.50;5010346;28;20104;-81
2021/04/11 09:17:46;;;;;;;38.00;27.90;;;;;;;12.33;86.68;100263.56;5021870;28;20068;-80
2021/04/11 09:20:24;;;;;;;36.53;26.75;;;;;;;12.40;87.72;100265.09;5038996;28;20045;-81
2021/04/11 09:23:18;;;;;;;33.72;24.27;;;;;;;12.69;87.19;100260.56;5016725;28;20478;-80
2021/04/11 09:25:53;;;;;;;34.17;25.15;;;;;;;12.92;81.65;100255.31;4991255;28;20042;-80
2021/04/11 09:28:36;;;;;;;32.58;25.02;;;;;;;13.29;80.40;100256.63;5011434;28;20045;-81
2021/04/11 09:31:08;;;;;;;33.63;23.15;;;;;;;13.48;79.87;100251.47;4995699;28;20050;-81
2021/04/11 09:33:41;;;;;;;35.28;26.80;;;;;;;13.78;79.37;100254.69;5022394;28;20046;-80
2021/04/11 09:36:15;;;;;;;51.38;35.72;;;;;;;14.00;80.06;100257.34;5017326;28;20034;-81
2021/04/11 09:38:52;;;;;;;32.00;23.50;;;;;;;14.32;74.90;100246.25;4995327;28;20072;-81
2021/04/11 09:41:41;;;;;;;28.67;22.88;;;;;;;14.45;72.64;100246.63;5011242;28;20061;-81
2021/04/11 09:44:18;;;;;;;27.88;21.55;;;;;;;14.30;72.79;100253.44;5023634;28;20037;-81
2021/04/11 09:46:56;;;;;;;29.75;21.13;;;;;;;14.26;74.04;100256.28;5017879;28;20046;-82
2021/04/11 09:49:37;;;;;;;27.67;21.25;;;;;;;14.21;72.94;100256.50;5021501;28;20044;-81
2021/04/11 09:52:22;;;;;;;27.08;21.25;;;;;;;14.19;76.17;100260.09;5005932;28;20046;-81
2021/04/11 09:55:01;;;;;;;28.30;21.25;;;;;;;14.23;77.12;100259.06;5034545;28;20041;-81
2021/04/11 09:57:48;;;;;;;25.77;19.75;;;;;;;14.17;75.36;100259.31;5005692;28;20082;-81
2021/04/11 10:00:17;;;;;;;24.20;19.35;;;;;;;14.12;76.13;100259.50;5015479;28;20124;-81
2021/04/11 10:03:08;;;;;;;27.10;21.08;;;;;;;14.04;79.99;100257.19;5008697;28;20108;-80
2021/04/11 10:05:50;;;;;;;26.38;18.85;;;;;;;13.98;75.45;100256.56;5012841;28;20033;-82
2021/04/11 10:08:26;;;;;;;25.85;19.35;;;;;;;13.93;77.58;100256.75;5026789;28;20057;-81
2021/04/11 10:11:07;;;;;;;29.48;23.55;;;;;;;13.80;76.00;100266.13;5022243;28;20322;-81
2021/04/11 10:13:42;;;;;;;28.55;20.45;;;;;;;13.75;77.47;100260.13;4994869;28;20045;-81
2021/04/11 10:16:28;;;;;;;23.92;18.25;;;;;;;13.62;78.55;100251.81;5023554;28;20037;-82
2021/04/11 10:19:03;;;;;;;27.98;21.67;;;;;;;13.61;79.49;100249.19;5008775;28;20034;-80
2021/04/11 10:21:54;;;;;;;23.23;17.85;;;;;;;13.59;80.93;100251.91;5014679;28;20042;-81
2021/04/11 10:24:54;;;;;;;23.35;18.10;;;;;;;13.61;80.09;100246.53;5013383;28;20046;-81
2021/04/11 10:27:29;;;;;;;26.08;19.35;;;;;;;13.61;76.82;100233.25;5006810;28;20105;-80
2021/04/11 10:29:59;;;;;;;24.17;18.70;;;;;;;13.74;78.51;100234.53;4970618;28;20096;-81
2021/04/11 10:32:35;;;;;;;24.83;18.40;;;;;;;13.94;78.75;100231.03;4978569;28;20055;-81
2021/04/11 10:35:07;;;;;;;23.77;16.73;;;;;;;14.12;75.75;100229.41;5005036;28;20042;-82
2021/04/11 10:37:51;;;;;;;25.05;17.58;;;;;;;14.33;72.39;100224.06;5010776;28;20057;-82
2021/04/11 10:40:57;;;;;;;20.30;15.57;;;;;;;14.53;73.35;100225.03;5010785;28;20065;-82
2021/04/11 10:43:29;;;;;;;22.80;16.75;;;;;;;14.85;71.90;100227.13;5007443;28;20065;-83
2021/04/11 10:49:25;;;;;;;22.70;16.60;;;;;;;15.10;71.34;100226.88;5036463;28;20052;-84
2021/04/11 10:52:29;;;;;;;19.05;13.75;;;;;;;15.51;69.11;100226.75;5003830;28;20091;-82
2021/04/11 10:55:20;;;;;;;20.20;14.15;;;;;;;15.92;67.75;100223.91;5009298;28;20041;-85
2021/04/11 10:58:03;;;;;;;21.05;16.67;;;;;;;16.29;62.98;100233.56;5014758;28;20034;-82
2021/04/11 11:00:38;;;;;;;20.15;15.00;;;;;;;16.45;65.34;100225.66;4996336;28;20111;-83
2021/04/11 11:03:41;;;;;;;17.60;13.50;;;;;;;16.73;65.20;100225.09;5028056;28;20045;-85
2021/04/11 11:06:29;;;;;;;15.07;12.45;;;;;;;16.76;61.76;100220.47;5043176;28;20044;-84
2021/04/11 11:09:06;;;;;;;19.30;13.73;;;;;;;16.99;61.19;100213.06;5006369;28;20486;-83
2021/04/11 11:12:07;;;;;;;15.50;12.38;;;;;;;17.29;63.78;100213.19;5016041;28;20046;-83
2021/04/11 11:14:39;;;;;;;14.40;12.48;;;;;;;17.49;58.99;100214.72;5030201;28;20049;-85
2021/04/11 11:17:51;;;;;;;19.23;14.37;;;;;;;17.56;56.60;100216.97;5042352;28;20092;-84
2021/04/11 11:20:21;;;;;;;13.95;11.48;;;;;;;17.72;56.82;100204.50;4969150;28;20304;-85
2021/04/11 11:23:01;;;;;;;16.20;13.23;;;;;;;17.73;57.42;100208.03;4990449;28;20053;-84
2021/04/11 11:25:48;;;;;;;16.83;14.10;;;;;;;17.87;59.19;100207.25;5009609;28;20068;-83
2021/04/11 11:28:39;;;;;;;20.60;13.55;;;;;;;18.00;58.40;100217.16;5046105;28;20038;-84
2021/04/11 11:31:38;;;;;;;14.50;12.57;;;;;;;18.13;55.54;100216.44;4995948;28;20074;-83
2021/04/11 11:34:25;;;;;;;16.75;13.38;;;;;;;18.09;53.34;100214.91;5014518;28;20057;-84
2021/04/11 11:37:12;;;;;;;17.73;12.05;;;;;;;18.11;54.68;100215.66;5027625;28;20041;-83
2021/04/11 11:40:03;;;;;;;16.60;12.52;;;;;;;18.32;56.71;100213.53;5008863;28;20421;-82
2021/04/11 11:42:39;;;;;;;15.80;11.95;;;;;;;18.34;56.22;100215.16;5020984;28;20148;-82
2021/04/11 11:45:15;;;;;;;14.70;12.40;;;;;;;18.48;52.85;100212.50;5025206;28;20072;-83
2021/04/11 11:47:57;;;;;;;15.65;13.13;;;;;;;18.55;55.10;100219.22;5028708;28;20041;-81
2021/04/11 11:51:10;;;;;;;17.20;12.70;;;;;;;18.57;52.02;100213.75;5045840;28;20034;-82
2021/04/11 11:53:40;;;;;;;14.73;11.15;;;;;;;18.28;54.89;100204.84;5044963;28;20186;-83
2021/04/11 11:56:48;;;;;;;15.15;11.05;;;;;;;18.19;56.12;100200.03;5014133;28;20043;-83
2021/04/11 11:59:17;;;;;;;16.13;11.95;;;;;;;18.33;55.20;100197.41;4952866;28;20050;-82
2021/04/11 12:01:59;;;;;;;14.52;11.57;;;;;;;18.37;53.30;100208.78;4968871;28;20038;-82